sensor_id;sensor_type;location;lat;lon;timestamp;pressure;altitude;pressure_sealevel;temperature;humidity
16190;BME280;41754;51.498;7.540;2023-07-02T00:00:25;99505.88;;;16.42;76.66
16190;BME280;41754;51.498;7.540;2023-07-02T00:02:52;99501.22;;;16.44;76.57
16190;BME280;41754;51.498;7.540;2023-07-02T00:05:20;99501.22;;;16.44;76.73
16190;BME280;41754;51.498;7.540;2023-07-02T00:07:48;99504.03;;;16.43;76.62
16190;BME280;41754;51.498;7.540;2023-07-02T00:10:16;99499.75;;;16.50;76.15
16190;BME280;41754;51.498;7.540;2023-07-02T00:12:45;99491.13;;;16.48;76.08
16190;BME280;41754;51.498;7.540;2023-07-02T00:15:13;99497.41;;;16.47;76.21
16190;BME280;41754;51.498;7.540;2023-07-02T00:17:41;99496.56;;;16.46;76.08
16190;BME280;41754;51.498;7.540;2023-07-02T00:20:10;99500.56;;;16.42;76.13
16190;BME280;41754;51.498;7.540;2023-07-02T00:22:41;99490.91;;;16.41;76.14
16190;BME280;41754;51.498;7.540;2023-07-02T00:25:13;99494.53;;;16.40;76.23
16190;BME280;41754;51.498;7.540;2023-07-02T00:27:41;99489.22;;;16.40;76.57
16190;BME280;41754;51.498;7.540;2023-07-02T00:30:10;99494.22;;;16.43;76.25
16190;BME280;41754;51.498;7.540;2023-07-02T00:32:39;99492.03;;;16.39;76.39
16190;BME280;41754;51.498;7.540;2023-07-02T00:35:07;99498.72;;;16.43;76.24
16190;BME280;41754;51.498;7.540;2023-07-02T00:37:35;99496.22;;;16.41;76.21
16190;BME280;41754;51.498;7.540;2023-07-02T00:40:03;99494.53;;;16.40;76.26
16190;BME280;41754;51.498;7.540;2023-07-02T00:42:31;99497.19;;;16.40;76.13
16190;BME280;41754;51.498;7.540;2023-07-02T00:44:59;99503.66;;;16.38;76.44
16190;BME280;41754;51.498;7.540;2023-07-02T00:47:32;99495.19;;;16.34;76.46
16190;BME280;41754;51.498;7.540;2023-07-02T00:50:02;99493.34;;;16.35;76.70
16190;BME280;41754;51.498;7.540;2023-07-02T00:52:30;99493.22;;;16.36;76.54
16190;BME280;41754;51.498;7.540;2023-07-02T00:54:58;99495.41;;;16.41;76.23
16190;BME280;41754;51.498;7.540;2023-07-02T00:57:26;99497.19;;;16.40;76.16
16190;BME280;41754;51.498;7.540;2023-07-02T00:59:57;99488.56;;;16.38;75.80
16190;BME280;41754;51.498;7.540;2023-07-02T01:02:27;99494.84;;;16.37;76.18
16190;BME280;41754;51.498;7.540;2023-07-02T01:04:58;99488.38;;;16.31;76.30
16190;BME280;41754;51.498;7.540;2023-07-02T01:07:27;99491.31;;;16.28;76.21
16190;BME280;41754;51.498;7.540;2023-07-02T01:09:55;99486.38;;;16.33;76.07
16190;BME280;41754;51.498;7.540;2023-07-02T01:12:23;99488.66;;;16.28;76.01
16190;BME280;41754;51.498;7.540;2023-07-02T01:14:53;99487.03;;;16.27;75.79
16190;BME280;41754;51.498;7.540;2023-07-02T01:17:26;99487.69;;;16.29;75.62
16190;BME280;41754;51.498;7.540;2023-07-02T01:19:57;99490.34;;;16.29;75.65
16190;BME280;41754;51.498;7.540;2023-07-02T01:22:28;99484.38;;;16.27;75.61
16190;BME280;41754;51.498;7.540;2023-07-02T01:24:57;99491.78;;;16.24;75.30
16190;BME280;41754;51.498;7.540;2023-07-02T01:27:27;99484.38;;;16.27;75.42
16190;BME280;41754;51.498;7.540;2023-07-02T01:29:56;99489.13;;;16.24;75.63
16190;BME280;41754;51.498;7.540;2023-07-02T01:32:24;99486.66;;;16.22;75.19
16190;BME280;41754;51.498;7.540;2023-07-02T01:34:52;99483.31;;;16.20;75.60
16190;BME280;41754;51.498;7.540;2023-07-02T01:37:22;99472.66;;;16.12;75.73
16190;BME280;41754;51.498;7.540;2023-07-02T01:39:49;99460.31;;;16.03;75.89
16190;BME280;41754;51.498;7.540;2023-07-02T01:42:18;99457.47;;;15.96;76.14
16190;BME280;41754;51.498;7.540;2023-07-02T01:44:48;99458.22;;;15.88;76.14
16190;BME280;41754;51.498;7.540;2023-07-02T01:47:17;99451.88;;;15.81;76.45
16190;BME280;41754;51.498;7.540;2023-07-02T01:49:46;99454.44;;;15.73;76.61
16190;BME280;41754;51.498;7.540;2023-07-02T01:52:14;99457.91;;;15.73;76.39
16190;BME280;41754;51.498;7.540;2023-07-02T01:54:45;99458.56;;;15.67;76.42
16190;BME280;41754;51.498;7.540;2023-07-02T01:57:13;99457.34;;;15.62;76.64
16190;BME280;41754;51.498;7.540;2023-07-02T01:59:40;99452.97;;;15.52;77.20
16190;BME280;41754;51.498;7.540;2023-07-02T02:02:09;99445.97;;;15.51;77.29
16190;BME280;41754;51.498;7.540;2023-07-02T02:04:36;99458.56;;;15.49;77.10
16190;BME280;41754;51.498;7.540;2023-07-02T02:07:05;99481.06;;;15.45;77.45
16190;BME280;41754;51.498;7.540;2023-07-02T02:09:32;99495.00;;;15.47;77.36
16190;BME280;41754;51.498;7.540;2023-07-02T02:12:02;99497.03;;;15.53;76.97
16190;BME280;41754;51.498;7.540;2023-07-02T02:14:30;99500.09;;;15.58;76.80
16190;BME280;41754;51.498;7.540;2023-07-02T02:16:57;99512.56;;;15.66;76.68
16190;BME280;41754;51.498;7.540;2023-07-02T02:19:26;99514.47;;;15.74;76.26
16190;BME280;41754;51.498;7.540;2023-07-02T02:21:54;99504.41;;;15.77;75.94
16190;BME280;41754;51.498;7.540;2023-07-02T02:24:21;99512.78;;;15.73;75.93
16190;BME280;41754;51.498;7.540;2023-07-02T02:26:49;99511.97;;;15.72;76.02
16190;BME280;41754;51.498;7.540;2023-07-02T02:29:19;99509.16;;;15.74;75.84
16190;BME280;41754;51.498;7.540;2023-07-02T02:31:47;99503.09;;;15.64;76.07
16190;BME280;41754;51.498;7.540;2023-07-02T02:34:15;99507.25;;;15.66;75.54
16190;BME280;41754;51.498;7.540;2023-07-02T02:36:42;99502.78;;;15.67;75.09
16190;BME280;41754;51.498;7.540;2023-07-02T02:39:10;99509.09;;;15.66;74.88
16190;BME280;41754;51.498;7.540;2023-07-02T02:41:38;99502.09;;;15.65;74.92
16190;BME280;41754;51.498;7.540;2023-07-02T02:44:06;99510.50;;;15.60;74.96
16190;BME280;41754;51.498;7.540;2023-07-02T02:46:36;99512.34;;;15.59;74.22
16190;BME280;41754;51.498;7.540;2023-07-02T02:49:04;99507.47;;;15.55;74.48
16190;BME280;41754;51.498;7.540;2023-07-02T02:51:31;99510.28;;;15.53;74.29
16190;BME280;41754;51.498;7.540;2023-07-02T02:53:59;99513.63;;;15.55;74.02
16190;BME280;41754;51.498;7.540;2023-07-02T02:56:27;99516.28;;;15.55;73.85
16190;BME280;41754;51.498;7.540;2023-07-02T02:58:55;99509.31;;;15.54;73.77
16190;BME280;41754;51.498;7.540;2023-07-02T03:01:23;99502.03;;;15.56;73.31
16190;BME280;41754;51.498;7.540;2023-07-02T03:03:52;99504.97;;;15.53;73.02
16190;BME280;41754;51.498;7.540;2023-07-02T03:06:20;99500.91;;;15.59;73.03
16190;BME280;41754;51.498;7.540;2023-07-02T03:08:48;99506.72;;;15.63;72.50
16190;BME280;41754;51.498;7.540;2023-07-02T03:11:15;99502.25;;;15.63;72.32
16190;BME280;41754;51.498;7.540;2023-07-02T03:13:43;99507.41;;;15.65;72.30
16190;BME280;41754;51.498;7.540;2023-07-02T03:16:11;99508.72;;;15.61;72.32
16190;BME280;41754;51.498;7.540;2023-07-02T03:18:39;99516.13;;;15.57;72.27
16190;BME280;41754;51.498;7.540;2023-07-02T03:21:08;99517.09;;;15.56;72.21
16190;BME280;41754;51.498;7.540;2023-07-02T03:23:36;99518.94;;;15.55;72.00
16190;BME280;41754;51.498;7.540;2023-07-02T03:26:04;99523.25;;;15.56;71.82
16190;BME280;41754;51.498;7.540;2023-07-02T03:28:32;99519.63;;;15.57;71.98
16190;BME280;41754;51.498;7.540;2023-07-02T03:31:01;99518.78;;;15.57;71.91
16190;BME280;41754;51.498;7.540;2023-07-02T03:33:30;99529.78;;;15.62;71.94
16190;BME280;41754;51.498;7.540;2023-07-02T03:35:57;99531.03;;;15.58;71.81
16190;BME280;41754;51.498;7.540;2023-07-02T03:38:27;99530.91;;;15.59;71.56
16190;BME280;41754;51.498;7.540;2023-07-02T03:40:54;99535.53;;;15.57;71.95
16190;BME280;41754;51.498;7.540;2023-07-02T03:43:22;99538.84;;;15.59;71.93
16190;BME280;41754;51.498;7.540;2023-07-02T03:45:51;99540.53;;;15.61;71.78
16190;BME280;41754;51.498;7.540;2023-07-02T03:48:19;99546.50;;;15.63;71.64
16190;BME280;41754;51.498;7.540;2023-07-02T03:50:47;99549.69;;;15.66;71.74
16190;BME280;41754;51.498;7.540;2023-07-02T03:53:15;99550.50;;;15.67;71.63
16190;BME280;41754;51.498;7.540;2023-07-02T03:55:44;99561.13;;;15.67;71.59
16190;BME280;41754;51.498;7.540;2023-07-02T03:58:12;99565.34;;;15.59;71.99
16190;BME280;41754;51.498;7.540;2023-07-02T04:00:40;99568.41;;;15.65;71.53
16190;BME280;41754;51.498;7.540;2023-07-02T04:03:08;99576.03;;;15.68;71.72
16190;BME280;41754;51.498;7.540;2023-07-02T04:05:36;99568.53;;;15.63;71.89
16190;BME280;41754;51.498;7.540;2023-07-02T04:08:04;99575.34;;;15.75;71.47
16190;BME280;41754;51.498;7.540;2023-07-02T04:10:32;99575.47;;;15.74;71.48
16190;BME280;41754;51.498;7.540;2023-07-02T04:13:01;99570.31;;;15.72;71.51
16190;BME280;41754;51.498;7.540;2023-07-02T04:15:29;99575.38;;;15.66;71.60
16190;BME280;41754;51.498;7.540;2023-07-02T04:17:58;99573.69;;;15.65;71.99
16190;BME280;41754;51.498;7.540;2023-07-02T04:20:26;99584.16;;;15.66;71.55
16190;BME280;41754;51.498;7.540;2023-07-02T04:22:55;99584.97;;;15.67;71.94
16190;BME280;41754;51.498;7.540;2023-07-02T04:25:23;99581.47;;;15.76;71.42
16190;BME280;41754;51.498;7.540;2023-07-02T04:28:12;99591.63;;;15.81;71.25
16190;BME280;41754;51.498;7.540;2023-07-02T04:30:40;99595.72;;;15.93;71.22
16190;BME280;41754;51.498;7.540;2023-07-02T04:33:08;99595.47;;;15.86;71.43
16190;BME280;41754;51.498;7.540;2023-07-02T04:35:40;99593.81;;;15.85;71.17
16190;BME280;41754;51.498;7.540;2023-07-02T04:38:08;99594.44;;;15.79;71.23
16190;BME280;41754;51.498;7.540;2023-07-02T04:40:36;99598.72;;;15.80;71.40
16190;BME280;41754;51.498;7.540;2023-07-02T04:43:04;99602.09;;;15.82;71.75
16190;BME280;41754;51.498;7.540;2023-07-02T04:45:33;99610.72;;;15.84;71.25
16190;BME280;41754;51.498;7.540;2023-07-02T04:48:03;99606.00;;;15.78;71.53
16190;BME280;41754;51.498;7.540;2023-07-02T04:50:31;99609.03;;;15.83;71.85
16190;BME280;41754;51.498;7.540;2023-07-02T04:52:59;99603.94;;;15.72;71.74
16190;BME280;41754;51.498;7.540;2023-07-02T04:55:27;99607.44;;;15.72;71.98
16190;BME280;41754;51.498;7.540;2023-07-02T04:57:55;99610.19;;;15.81;71.77
16190;BME280;41754;51.498;7.540;2023-07-02T05:00:23;99614.56;;;15.90;71.33
16190;BME280;41754;51.498;7.540;2023-07-02T05:02:52;99619.06;;;15.89;71.53
16190;BME280;41754;51.498;7.540;2023-07-02T05:05:20;99616.31;;;15.81;71.72
16190;BME280;41754;51.498;7.540;2023-07-02T05:07:47;99620.28;;;15.77;71.63
16190;BME280;41754;51.498;7.540;2023-07-02T05:10:15;99618.00;;;15.82;71.34
16190;BME280;41754;51.498;7.540;2023-07-02T05:12:44;99625.34;;;15.88;71.34
16190;BME280;41754;51.498;7.540;2023-07-02T05:15:11;99624.28;;;15.81;71.46
16190;BME280;41754;51.498;7.540;2023-07-02T05:17:39;99624.13;;;15.83;72.13
16190;BME280;41754;51.498;7.540;2023-07-02T05:20:10;99628.00;;;15.88;71.75
16190;BME280;41754;51.498;7.540;2023-07-02T05:22:37;99639.69;;;15.95;71.25
16190;BME280;41754;51.498;7.540;2023-07-02T05:25:06;99638.69;;;15.97;71.35
16190;BME280;41754;51.498;7.540;2023-07-02T05:27:34;99632.41;;;15.98;70.99
16190;BME280;41754;51.498;7.540;2023-07-02T05:30:02;99642.72;;;16.01;71.07
16190;BME280;41754;51.498;7.540;2023-07-02T05:32:30;99645.50;;;16.17;71.27
16190;BME280;41754;51.498;7.540;2023-07-02T05:34:58;99644.16;;;16.13;70.59
16190;BME280;41754;51.498;7.540;2023-07-02T05:37:27;99638.38;;;16.00;71.03
16190;BME280;41754;51.498;7.540;2023-07-02T05:39:55;99641.88;;;16.00;71.17
16190;BME280;41754;51.498;7.540;2023-07-02T05:42:23;99644.44;;;15.92;71.01
16190;BME280;41754;51.498;7.540;2023-07-02T05:44:50;99649.97;;;15.99;70.98
16190;BME280;41754;51.498;7.540;2023-07-02T05:47:18;99649.06;;;16.08;71.01
16190;BME280;41754;51.498;7.540;2023-07-02T05:49:46;99648.84;;;16.01;71.32
16190;BME280;41754;51.498;7.540;2023-07-02T05:52:14;99650.91;;;16.07;70.73
16190;BME280;41754;51.498;7.540;2023-07-02T05:54:43;99652.94;;;16.13;71.06
16190;BME280;41754;51.498;7.540;2023-07-02T05:57:11;99659.56;;;16.27;70.33
16190;BME280;41754;51.498;7.540;2023-07-02T05:59:39;99656.63;;;16.39;70.11
16190;BME280;41754;51.498;7.540;2023-07-02T06:02:07;99661.94;;;16.57;69.39
16190;BME280;41754;51.498;7.540;2023-07-02T06:04:34;99659.78;;;16.60;69.41
16190;BME280;41754;51.498;7.540;2023-07-02T06:07:03;99668.97;;;16.66;68.47
16190;BME280;41754;51.498;7.540;2023-07-02T06:09:30;99671.50;;;16.76;68.38
16190;BME280;41754;51.498;7.540;2023-07-02T06:12:00;99671.06;;;16.80;69.31
16190;BME280;41754;51.498;7.540;2023-07-02T06:14:28;99672.00;;;16.71;68.31
16190;BME280;41754;51.498;7.540;2023-07-02T06:16:56;99680.00;;;16.53;68.23
16190;BME280;41754;51.498;7.540;2023-07-02T06:19:25;99676.28;;;16.46;69.12
16190;BME280;41754;51.498;7.540;2023-07-02T06:21:53;99679.31;;;16.51;68.83
16190;BME280;41754;51.498;7.540;2023-07-02T06:24:21;99676.03;;;16.57;68.35
16190;BME280;41754;51.498;7.540;2023-07-02T06:26:49;99679.91;;;16.63;68.37
16190;BME280;41754;51.498;7.540;2023-07-02T06:29:18;99682.03;;;16.59;68.57
16190;BME280;41754;51.498;7.540;2023-07-02T06:31:46;99688.03;;;16.61;67.78
16190;BME280;41754;51.498;7.540;2023-07-02T06:34:14;99687.41;;;16.67;67.87
16190;BME280;41754;51.498;7.540;2023-07-02T06:36:42;99684.69;;;16.59;67.01
16190;BME280;41754;51.498;7.540;2023-07-02T06:39:10;99690.22;;;16.66;67.45
16190;BME280;41754;51.498;7.540;2023-07-02T06:41:38;99683.75;;;16.68;66.36
16190;BME280;41754;51.498;7.540;2023-07-02T06:44:06;99693.56;;;16.86;65.90
16190;BME280;41754;51.498;7.540;2023-07-02T06:46:35;99708.66;;;17.12;66.04
16190;BME280;41754;51.498;7.540;2023-07-02T06:49:03;99695.75;;;16.73;64.99
16190;BME280;41754;51.498;7.540;2023-07-02T06:51:30;99699.03;;;16.84;64.13
16190;BME280;41754;51.498;7.540;2023-07-02T06:54:00;99701.88;;;17.17;64.40
16190;BME280;41754;51.498;7.540;2023-07-02T06:56:27;99699.47;;;17.32;62.54
16190;BME280;41754;51.498;7.540;2023-07-02T06:58:55;99707.13;;;17.35;62.45
16190;BME280;41754;51.498;7.540;2023-07-02T07:01:23;99710.22;;;17.57;61.57
16190;BME280;41754;51.498;7.540;2023-07-02T07:03:52;99714.22;;;17.61;62.52
16190;BME280;41754;51.498;7.540;2023-07-02T07:06:20;99716.16;;;17.16;61.27
16190;BME280;41754;51.498;7.540;2023-07-02T07:08:48;99709.00;;;17.43;61.04
16190;BME280;41754;51.498;7.540;2023-07-02T07:11:17;99705.97;;;17.80;60.27
16190;BME280;41754;51.498;7.540;2023-07-02T07:13:48;99711.38;;;17.97;59.99
16190;BME280;41754;51.498;7.540;2023-07-02T07:16:15;99708.38;;;17.92;58.87
16190;BME280;41754;51.498;7.540;2023-07-02T07:18:43;99700.59;;;18.07;58.47
16190;BME280;41754;51.498;7.540;2023-07-02T07:21:13;99704.72;;;17.93;57.21
16190;BME280;41754;51.498;7.540;2023-07-02T07:23:41;99705.66;;;17.84;58.41
16190;BME280;41754;51.498;7.540;2023-07-02T07:26:09;99716.03;;;17.87;57.64
16190;BME280;41754;51.498;7.540;2023-07-02T07:28:36;99725.59;;;17.79;57.45
16190;BME280;41754;51.498;7.540;2023-07-02T07:31:04;99708.78;;;18.13;55.72
16190;BME280;41754;51.498;7.540;2023-07-02T07:33:32;99714.06;;;18.05;56.45
16190;BME280;41754;51.498;7.540;2023-07-02T07:36:00;99715.09;;;18.12;56.80
16190;BME280;41754;51.498;7.540;2023-07-02T07:38:29;99723.63;;;18.49;56.19
16190;BME280;41754;51.498;7.540;2023-07-02T07:40:57;99721.78;;;18.41;54.41
16190;BME280;41754;51.498;7.540;2023-07-02T07:43:25;99726.91;;;18.26;54.96
16190;BME280;41754;51.498;7.540;2023-07-02T07:45:53;99724.41;;;18.16;53.62
16190;BME280;41754;51.498;7.540;2023-07-02T07:48:21;99716.28;;;18.34;53.80
16190;BME280;41754;51.498;7.540;2023-07-02T07:50:49;99729.59;;;18.34;51.75
16190;BME280;41754;51.498;7.540;2023-07-02T07:53:17;99728.09;;;18.48;49.33
16190;BME280;41754;51.498;7.540;2023-07-02T07:55:46;99726.63;;;18.46;49.05
16190;BME280;41754;51.498;7.540;2023-07-02T07:58:14;99725.44;;;18.65;47.84
16190;BME280;41754;51.498;7.540;2023-07-02T08:00:42;99738.25;;;18.53;48.08
16190;BME280;41754;51.498;7.540;2023-07-02T08:03:10;99743.75;;;18.35;47.41
16190;BME280;41754;51.498;7.540;2023-07-02T08:05:38;99725.75;;;18.29;48.21
16190;BME280;41754;51.498;7.540;2023-07-02T08:08:06;99726.94;;;18.43;47.33
16190;BME280;41754;51.498;7.540;2023-07-02T08:10:35;99743.44;;;18.71;46.83
16190;BME280;41754;51.498;7.540;2023-07-02T08:13:04;99752.75;;;18.75;46.58
16190;BME280;41754;51.498;7.540;2023-07-02T08:15:32;99745.81;;;18.90;47.13
16190;BME280;41754;51.498;7.540;2023-07-02T08:18:00;99750.28;;;18.98;48.24
16190;BME280;41754;51.498;7.540;2023-07-02T08:20:28;99754.78;;;18.89;46.21
16190;BME280;41754;51.498;7.540;2023-07-02T08:22:55;99750.13;;;19.00;47.24
16190;BME280;41754;51.498;7.540;2023-07-02T08:25:23;99749.78;;;19.11;46.76
16190;BME280;41754;51.498;7.540;2023-07-02T08:27:53;99752.44;;;18.53;47.21
16190;BME280;41754;51.498;7.540;2023-07-02T08:30:22;99754.94;;;18.47;47.76
16190;BME280;41754;51.498;7.540;2023-07-02T08:32:52;99749.41;;;18.57;47.76
16190;BME280;41754;51.498;7.540;2023-07-02T08:35:22;99763.72;;;18.39;47.46
16190;BME280;41754;51.498;7.540;2023-07-02T08:37:50;99767.16;;;18.23;47.29
16190;BME280;41754;51.498;7.540;2023-07-02T08:40:18;99766.41;;;18.47;47.80
16190;BME280;41754;51.498;7.540;2023-07-02T08:42:46;99771.25;;;18.60;47.11
16190;BME280;41754;51.498;7.540;2023-07-02T08:45:15;99774.09;;;19.08;47.78
16190;BME280;41754;51.498;7.540;2023-07-02T08:47:45;99770.78;;;19.22;47.47
16190;BME280;41754;51.498;7.540;2023-07-02T08:50:13;99771.28;;;19.18;44.95
16190;BME280;41754;51.498;7.540;2023-07-02T08:52:41;99777.28;;;18.87;45.58
16190;BME280;41754;51.498;7.540;2023-07-02T08:55:09;99774.59;;;18.70;47.02
16190;BME280;41754;51.498;7.540;2023-07-02T08:57:37;99783.59;;;18.78;45.79
16190;BME280;41754;51.498;7.540;2023-07-02T09:00:08;99777.06;;;18.80;45.53
16190;BME280;41754;51.498;7.540;2023-07-02T09:02:36;99782.25;;;18.73;45.47
16190;BME280;41754;51.498;7.540;2023-07-02T09:05:06;99793.25;;;18.70;45.17
16190;BME280;41754;51.498;7.540;2023-07-02T09:07:43;99782.78;;;18.85;45.08
16190;BME280;41754;51.498;7.540;2023-07-02T09:10:11;99789.06;;;18.68;44.07
16190;BME280;41754;51.498;7.540;2023-07-02T09:12:39;99791.22;;;18.64;45.56
16190;BME280;41754;51.498;7.540;2023-07-02T09:15:07;99793.59;;;18.76;45.50
16190;BME280;41754;51.498;7.540;2023-07-02T09:17:36;99782.44;;;18.72;44.56
16190;BME280;41754;51.498;7.540;2023-07-02T09:20:07;99782.28;;;19.06;46.22
16190;BME280;41754;51.498;7.540;2023-07-02T09:22:36;99782.72;;;19.51;43.20
16190;BME280;41754;51.498;7.540;2023-07-02T09:25:06;99785.84;;;20.11;44.34
16190;BME280;41754;51.498;7.540;2023-07-02T09:27:34;99790.44;;;20.25;42.88
16190;BME280;41754;51.498;7.540;2023-07-02T09:30:08;99794.31;;;19.83;40.92
16190;BME280;41754;51.498;7.540;2023-07-02T09:32:36;99784.09;;;20.26;41.19
16190;BME280;41754;51.498;7.540;2023-07-02T09:35:06;99795.09;;;19.92;40.57
16190;BME280;41754;51.498;7.540;2023-07-02T09:37:34;99799.00;;;19.73;40.44
16190;BME280;41754;51.498;7.540;2023-07-02T09:40:03;99791.34;;;19.61;40.73
16190;BME280;41754;51.498;7.540;2023-07-02T09:42:35;99794.75;;;20.03;40.53
16190;BME280;41754;51.498;7.540;2023-07-02T09:45:05;99796.38;;;20.04;39.62
16190;BME280;41754;51.498;7.540;2023-07-02T09:47:39;99795.59;;;19.95;39.52
16190;BME280;41754;51.498;7.540;2023-07-02T09:50:13;99792.94;;;19.87;40.48
16190;BME280;41754;51.498;7.540;2023-07-02T09:52:44;99799.88;;;20.13;39.21
16190;BME280;41754;51.498;7.540;2023-07-02T09:55:12;99806.78;;;19.91;40.48
16190;BME280;41754;51.498;7.540;2023-07-02T09:57:43;99801.84;;;20.11;39.27
16190;BME280;41754;51.498;7.540;2023-07-02T10:00:12;99798.84;;;20.14;38.85
16190;BME280;41754;51.498;7.540;2023-07-02T10:02:40;99796.88;;;20.08;37.85
16190;BME280;41754;51.498;7.540;2023-07-02T10:05:08;99785.53;;;20.37;37.97
16190;BME280;41754;51.498;7.540;2023-07-02T10:07:37;99791.88;;;20.67;37.65
16190;BME280;41754;51.498;7.540;2023-07-02T10:10:06;99801.31;;;19.84;38.23
16190;BME280;41754;51.498;7.540;2023-07-02T10:12:45;99787.91;;;19.92;37.87
16190;BME280;41754;51.498;7.540;2023-07-02T10:15:24;99804.19;;;20.14;37.18
16190;BME280;41754;51.498;7.540;2023-07-02T10:17:56;99811.91;;;20.00;38.91
16190;BME280;41754;51.498;7.540;2023-07-02T10:20:36;99802.84;;;20.18;38.37
16190;BME280;41754;51.498;7.540;2023-07-02T10:23:07;99794.06;;;20.87;38.23
16190;BME280;41754;51.498;7.540;2023-07-02T10:25:36;99795.38;;;21.29;38.42
16190;BME280;41754;51.498;7.540;2023-07-02T10:28:14;99794.25;;;20.85;37.83
16190;BME280;41754;51.498;7.540;2023-07-02T10:30:42;99790.31;;;20.50;38.94
16190;BME280;41754;51.498;7.540;2023-07-02T10:33:11;99795.44;;;20.28;40.06
16190;BME280;41754;51.498;7.540;2023-07-02T10:35:39;99799.00;;;19.81;40.90
16190;BME280;41754;51.498;7.540;2023-07-02T10:38:14;99799.81;;;19.73;40.54
16190;BME280;41754;51.498;7.540;2023-07-02T10:40:43;99796.38;;;19.48;41.70
16190;BME280;41754;51.498;7.540;2023-07-02T10:43:11;99807.34;;;19.61;41.05
16190;BME280;41754;51.498;7.540;2023-07-02T10:45:40;99800.69;;;20.13;39.24
16190;BME280;41754;51.498;7.540;2023-07-02T10:48:09;99804.84;;;20.47;39.08
16190;BME280;41754;51.498;7.540;2023-07-02T10:50:37;99795.69;;;20.42;39.15
16190;BME280;41754;51.498;7.540;2023-07-02T10:53:04;99800.22;;;20.10;40.25
16190;BME280;41754;51.498;7.540;2023-07-02T10:55:34;99806.47;;;19.86;40.20
16190;BME280;41754;51.498;7.540;2023-07-02T10:58:02;99821.41;;;20.11;40.22
16190;BME280;41754;51.498;7.540;2023-07-02T11:00:31;99808.03;;;20.74;38.69
16190;BME280;41754;51.498;7.540;2023-07-02T11:02:59;99820.38;;;21.74;38.38
16190;BME280;41754;51.498;7.540;2023-07-02T11:05:27;99802.88;;;22.08;36.78
16190;BME280;41754;51.498;7.540;2023-07-02T11:08:07;99803.50;;;22.83;32.61
16190;BME280;41754;51.498;7.540;2023-07-02T11:10:37;99808.19;;;21.19;36.52
16190;BME280;41754;51.498;7.540;2023-07-02T11:13:10;99814.00;;;20.53;38.42
16190;BME280;41754;51.498;7.540;2023-07-02T11:15:38;99822.84;;;21.76;37.31
16190;BME280;41754;51.498;7.540;2023-07-02T11:18:11;99832.72;;;22.05;36.91
16190;BME280;41754;51.498;7.540;2023-07-02T11:20:40;99830.31;;;21.51;36.70
16190;BME280;41754;51.498;7.540;2023-07-02T11:23:17;99833.47;;;21.69;36.36
16190;BME280;41754;51.498;7.540;2023-07-02T11:25:56;99838.06;;;22.71;34.35
16190;BME280;41754;51.498;7.540;2023-07-02T11:28:25;99834.19;;;22.22;34.79
16190;BME280;41754;51.498;7.540;2023-07-02T11:30:54;99823.72;;;23.85;31.90
16190;BME280;41754;51.498;7.540;2023-07-02T11:33:32;99827.16;;;22.07;34.46
16190;BME280;41754;51.498;7.540;2023-07-02T11:36:00;99821.41;;;21.35;35.33
16190;BME280;41754;51.498;7.540;2023-07-02T11:38:28;99838.03;;;20.84;35.89
16190;BME280;41754;51.498;7.540;2023-07-02T11:40:57;99822.41;;;20.73;36.53
16190;BME280;41754;51.498;7.540;2023-07-02T11:43:26;99825.75;;;20.75;36.95
16190;BME280;41754;51.498;7.540;2023-07-02T11:45:53;99838.75;;;22.07;34.62
16190;BME280;41754;51.498;7.540;2023-07-02T11:48:21;99832.00;;;21.81;35.63
16190;BME280;41754;51.498;7.540;2023-07-02T11:50:49;99833.66;;;22.12;34.83
16190;BME280;41754;51.498;7.540;2023-07-02T11:53:17;99815.47;;;23.30;32.65
16190;BME280;41754;51.498;7.540;2023-07-02T11:55:44;99820.44;;;23.90;30.79
16190;BME280;41754;51.498;7.540;2023-07-02T11:58:14;99827.44;;;23.56;31.30
16190;BME280;41754;51.498;7.540;2023-07-02T12:00:42;99840.84;;;22.63;32.62
16190;BME280;41754;51.498;7.540;2023-07-02T12:03:10;99829.75;;;22.00;34.37
16190;BME280;41754;51.498;7.540;2023-07-02T12:05:39;99826.31;;;24.62;33.43
16190;BME280;41754;51.498;7.540;2023-07-02T12:08:07;99827.28;;;23.64;30.77
16190;BME280;41754;51.498;7.540;2023-07-02T12:10:35;99842.38;;;22.51;32.98
16190;BME280;41754;51.498;7.540;2023-07-02T12:13:04;99840.94;;;22.70;33.80
16190;BME280;41754;51.498;7.540;2023-07-02T12:15:33;99832.66;;;23.08;32.44
16190;BME280;41754;51.498;7.540;2023-07-02T12:18:01;99848.19;;;22.54;33.39
16190;BME280;41754;51.498;7.540;2023-07-02T12:20:29;99831.97;;;23.84;30.27
16190;BME280;41754;51.498;7.540;2023-07-02T12:22:57;99834.88;;;25.26;27.54
16190;BME280;41754;51.498;7.540;2023-07-02T12:25:26;99827.31;;;26.01;27.98
16190;BME280;41754;51.498;7.540;2023-07-02T12:27:54;99841.22;;;25.91;27.08
16190;BME280;41754;51.498;7.540;2023-07-02T12:30:22;99838.81;;;25.30;27.91
16190;BME280;41754;51.498;7.540;2023-07-02T12:32:51;99840.81;;;25.81;26.80
16190;BME280;41754;51.498;7.540;2023-07-02T12:35:19;99831.53;;;25.10;28.86
16190;BME280;41754;51.498;7.540;2023-07-02T12:37:48;99839.34;;;23.19;30.97
16190;BME280;41754;51.498;7.540;2023-07-02T12:40:17;99838.25;;;22.91;30.75
16190;BME280;41754;51.498;7.540;2023-07-02T12:42:45;99831.69;;;23.44;30.63
16190;BME280;41754;51.498;7.540;2023-07-02T12:45:14;99838.59;;;23.88;30.09
16190;BME280;41754;51.498;7.540;2023-07-02T12:47:46;99833.63;;;25.35;30.43
16190;BME280;41754;51.498;7.540;2023-07-02T12:50:15;99841.47;;;24.96;28.27
16190;BME280;41754;51.498;7.540;2023-07-02T12:52:44;99831.44;;;23.95;28.50
16190;BME280;41754;51.498;7.540;2023-07-02T12:55:11;99829.03;;;24.14;29.96
16190;BME280;41754;51.498;7.540;2023-07-02T12:57:39;99837.09;;;23.01;30.89
16190;BME280;41754;51.498;7.540;2023-07-02T13:00:08;99842.69;;;21.81;31.42
16190;BME280;41754;51.498;7.540;2023-07-02T13:02:36;99843.41;;;22.20;30.81
16190;BME280;41754;51.498;7.540;2023-07-02T13:05:20;99849.34;;;22.67;30.54
16190;BME280;41754;51.498;7.540;2023-07-02T13:07:48;99840.81;;;23.21;28.90